sensor_id;sensor_type;location;lat;lon;timestamp;pressure;altitude;pressure_sealevel;temperature;humidity
55044;BME280;54902;50.420;18.854;2022-07-29T00:00:13;102032.03;;;18.21;52.16
55044;BME280;54902;50.420;18.854;2022-07-29T00:00:30;102042.45;;;18.19;52.29
55044;BME280;54902;50.420;18.854;2022-07-29T00:00:46;102031.50;;;18.18;52.17
55044;BME280;54902;50.420;18.854;2022-07-29T00:01:02;102035.83;;;18.20;52.17
55044;BME280;54902;50.420;18.854;2022-07-29T00:01:18;102042.45;;;18.19;52.34
55044;BME280;54902;50.420;18.854;2022-07-29T00:01:34;102033.22;;;18.19;52.33
55044;BME280;54902;50.420;18.854;2022-07-29T00:01:50;102038.61;;;18.20;52.42
55044;BME280;54902;50.420;18.854;2022-07-29T00:02:08;102025.04;;;18.17;52.31
55044;BME280;54902;50.420;18.854;2022-07-29T00:02:25;102034.27;;;18.18;52.15
55044;BME280;54902;50.420;18.854;2022-07-29T00:02:41;102031.50;;;18.18;52.28
55044;BME280;54902;50.420;18.854;2022-07-29T00:02:57;102038.07;;;18.17;52.24
55044;BME280;54902;50.420;18.854;2022-07-29T00:03:14;102039.95;;;18.16;52.26
55044;BME280;54902;50.420;18.854;2022-07-29T00:03:30;102037.18;;;18.16;52.14
55044;BME280;54902;50.420;18.854;2022-07-29T00:03:47;102036.16;;;18.17;52.34
55044;BME280;54902;50.420;18.854;2022-07-29T00:04:03;102033.38;;;18.17;52.27
55044;BME280;54902;50.420;18.854;2022-07-29T00:04:19;102047.27;;;18.17;52.32
55044;BME280;54902;50.420;18.854;2022-07-29T00:04:36;102042.73;;;18.16;52.38
55044;BME280;54902;50.420;18.854;2022-07-29T00:04:53;102047.27;;;18.17;52.35
55044;BME280;54902;50.420;18.854;2022-07-29T00:05:09;102035.30;;;18.17;52.28
55044;BME280;54902;50.420;18.854;2022-07-29T00:05:28;102042.86;;;18.15;52.33
55044;BME280;54902;50.420;18.854;2022-07-29T00:05:45;102039.06;;;18.16;52.30
55044;BME280;54902;50.420;18.854;2022-07-29T00:06:01;102042.86;;;18.15;52.38
55044;BME280;54902;50.420;18.854;2022-07-29T00:06:17;102041.99;;;18.14;52.34
55044;BME280;54902;50.420;18.854;2022-07-29T00:06:33;102037.46;;;18.13;52.22
55044;BME280;54902;50.420;18.854;2022-07-29T00:06:50;102044.03;;;18.12;52.37
55044;BME280;54902;50.420;18.854;2022-07-29T00:07:06;102033.99;;;18.11;52.44
55044;BME280;54902;50.420;18.854;2022-07-29T00:07:23;102038.48;;;18.12;52.26
55044;BME280;54902;50.420;18.854;2022-07-29T00:07:39;102041.42;;;18.11;52.45
55044;BME280;54902;50.420;18.854;2022-07-29T00:07:56;102045.09;;;18.11;52.26
55044;BME280;54902;50.420;18.854;2022-07-29T00:08:12;102045.96;;;18.12;52.27
55044;BME280;54902;50.420;18.854;2022-07-29T00:08:28;102040.55;;;18.10;52.40
55044;BME280;54902;50.420;18.854;2022-07-29T00:08:44;102035.02;;;18.10;52.48
55044;BME280;54902;50.420;18.854;2022-07-29T00:09:00;102033.99;;;18.11;52.52
55044;BME280;54902;50.420;18.854;2022-07-29T00:09:16;102034.11;;;18.10;52.53
55044;BME280;54902;50.420;18.854;2022-07-29T00:09:33;102033.24;;;18.09;52.54
55044;BME280;54902;50.420;18.854;2022-07-29T00:09:50;102029.62;;;18.09;52.60
55044;BME280;54902;50.420;18.854;2022-07-29T00:10:06;102036.20;;;18.08;52.44
55044;BME280;54902;50.420;18.854;2022-07-29T00:10:23;102041.59;;;18.09;52.47
55044;BME280;54902;50.420;18.854;2022-07-29T00:10:39;102035.33;;;18.08;52.30
55044;BME280;54902;50.420;18.854;2022-07-29T00:10:55;102041.74;;;18.08;52.41
55044;BME280;54902;50.420;18.854;2022-07-29T00:11:11;102031.50;;;18.08;52.33
55044;BME280;54902;50.420;18.854;2022-07-29T00:11:27;102032.55;;;18.08;52.57
55044;BME280;54902;50.420;18.854;2022-07-29T00:11:43;102034.43;;;18.07;52.38
55044;BME280;54902;50.420;18.854;2022-07-29T00:12:01;102033.41;;;18.08;52.65
55044;BME280;54902;50.420;18.854;2022-07-29T00:12:17;102029.77;;;18.08;52.48
55044;BME280;54902;50.420;18.854;2022-07-29T00:12:34;102032.68;;;18.06;52.57
55044;BME280;54902;50.420;18.854;2022-07-29T00:12:51;102034.59;;;18.06;52.50
55044;BME280;54902;50.420;18.854;2022-07-29T00:13:07;102039.98;;;18.07;52.58
55044;BME280;54902;50.420;18.854;2022-07-29T00:13:23;102031.82;;;18.06;52.72
55044;BME280;54902;50.420;18.854;2022-07-29T00:13:39;102027.29;;;18.05;52.44
55044;BME280;54902;50.420;18.854;2022-07-29T00:13:55;102035.62;;;18.05;52.58
55044;BME280;54902;50.420;18.854;2022-07-29T00:14:11;102032.84;;;18.05;52.56
55044;BME280;54902;50.420;18.854;2022-07-29T00:14:28;102035.62;;;18.05;52.79
55044;BME280;54902;50.420;18.854;2022-07-29T00:14:44;102038.40;;;18.05;52.67
55044;BME280;54902;50.420;18.854;2022-07-29T00:14:50;102037.53;;;18.04;52.71
55044;BME280;54902;50.420;18.854;2022-07-29T00:15:00;102038.40;;;18.05;52.77
55044;BME280;54902;50.420;18.854;2022-07-29T00:15:17;102041.49;;;18.02;52.78
55044;BME280;54902;50.420;18.854;2022-07-29T00:15:33;102037.68;;;18.03;52.62
55044;BME280;54902;50.420;18.854;2022-07-29T00:15:49;102034.92;;;18.03;52.67
55044;BME280;54902;50.420;18.854;2022-07-29T00:16:05;102032.14;;;18.03;52.73
55044;BME280;54902;50.420;18.854;2022-07-29T00:16:21;102029.37;;;18.03;52.67
55044;BME280;54902;50.420;18.854;2022-07-29T00:16:38;102034.18;;;18.01;52.70
55044;BME280;54902;50.420;18.854;2022-07-29T00:16:55;102035.94;;;18.02;52.68
55044;BME280;54902;50.420;18.854;2022-07-29T00:17:11;102035.94;;;18.02;52.63
55044;BME280;54902;50.420;18.854;2022-07-29T00:17:27;102037.85;;;18.01;52.63
55044;BME280;54902;50.420;18.854;2022-07-29T00:17:45;102028.63;;;18.01;52.57
55044;BME280;54902;50.420;18.854;2022-07-29T00:18:02;102031.56;;;17.99;52.63
55044;BME280;54902;50.420;18.854;2022-07-29T00:18:18;102028.63;;;18.01;52.68
55044;BME280;54902;50.420;18.854;2022-07-29T00:18:34;102033.32;;;18.00;52.78
55044;BME280;54902;50.420;18.854;2022-07-29T00:18:50;102044.27;;;18.02;52.76
55044;BME280;54902;50.420;18.854;2022-07-29T00:19:06;102032.42;;;18.00;52.67
55044;BME280;54902;50.420;18.854;2022-07-29T00:19:23;102037.28;;;17.98;52.83
55044;BME280;54902;50.420;18.854;2022-07-29T00:19:39;102032.59;;;17.98;52.87
55044;BME280;54902;50.420;18.854;2022-07-29T00:19:55;102026.17;;;17.98;52.67
55044;BME280;54902;50.420;18.854;2022-07-29T00:20:11;102034.50;;;17.98;52.68
55044;BME280;54902;50.420;18.854;2022-07-29T00:20:27;102029.81;;;17.98;52.57
55044;BME280;54902;50.420;18.854;2022-07-29T00:20:43;102030.87;;;17.97;52.43
55044;BME280;54902;50.420;18.854;2022-07-29T00:20:59;102040.05;;;17.98;52.39
55044;BME280;54902;50.420;18.854;2022-07-29T00:21:15;102034.66;;;17.96;52.57
55044;BME280;54902;50.420;18.854;2022-07-29T00:21:31;102029.97;;;17.97;52.62
55044;BME280;54902;50.420;18.854;2022-07-29T00:21:47;102033.63;;;17.97;52.68
55044;BME280;54902;50.420;18.854;2022-07-29T00:22:03;102028.95;;;17.98;52.47
55044;BME280;54902;50.420;18.854;2022-07-29T00:22:20;102028.09;;;17.97;52.62
55044;BME280;54902;50.420;18.854;2022-07-29T00:22:39;102029.97;;;17.97;52.55
55044;BME280;54902;50.420;18.854;2022-07-29T00:22:55;102031.88;;;17.96;52.58
55044;BME280;54902;50.420;18.854;2022-07-29T00:23:11;102030.98;;;17.96;52.49
55044;BME280;54902;50.420;18.854;2022-07-29T00:23:27;102028.21;;;17.96;52.55
55044;BME280;54902;50.420;18.854;2022-07-29T00:23:43;102028.95;;;17.98;52.50
55044;BME280;54902;50.420;18.854;2022-07-29T00:23:59;102028.95;;;17.98;52.67
55044;BME280;54902;50.420;18.854;2022-07-29T00:24:15;102015.22;;;17.96;52.59
55044;BME280;54902;50.420;18.854;2022-07-29T00:24:32;102028.09;;;17.97;52.60
55044;BME280;54902;50.420;18.854;2022-07-29T00:24:48;102030.98;;;17.96;52.63
55044;BME280;54902;50.420;18.854;2022-07-29T00:25:05;102027.19;;;17.97;52.75
55044;BME280;54902;50.420;18.854;2022-07-29T00:25:22;102031.73;;;17.98;52.59
55044;BME280;54902;50.420;18.854;2022-07-29T00:25:38;102031.88;;;17.96;52.69
55044;BME280;54902;50.420;18.854;2022-07-29T00:25:54;102025.31;;;17.97;52.78
55044;BME280;54902;50.420;18.854;2022-07-29T00:26:10;102032.74;;;17.97;52.92
55044;BME280;54902;50.420;18.854;2022-07-29T00:26:27;102035.52;;;17.97;52.95
55044;BME280;54902;50.420;18.854;2022-07-29T00:26:47;102030.87;;;17.97;53.00
55044;BME280;54902;50.420;18.854;2022-07-29T00:27:03;102021.64;;;17.97;52.93
55044;BME280;54902;50.420;18.854;2022-07-29T00:27:19;102022.53;;;17.97;52.74
55044;BME280;54902;50.420;18.854;2022-07-29T00:27:36;102028.95;;;17.98;52.83
55044;BME280;54902;50.420;18.854;2022-07-29T00:27:52;102029.97;;;17.97;52.69
55044;BME280;54902;50.420;18.854;2022-07-29T00:28:08;102025.43;;;17.96;52.68
55044;BME280;54902;50.420;18.854;2022-07-29T00:28:24;102028.09;;;17.97;52.95
55044;BME280;54902;50.420;18.854;2022-07-29T00:28:40;102027.19;;;17.97;53.00
55044;BME280;54902;50.420;18.854;2022-07-29T00:28:57;102021.47;;;17.98;52.93
55044;BME280;54902;50.420;18.854;2022-07-29T00:29:13;102021.64;;;17.97;52.86
55044;BME280;54902;50.420;18.854;2022-07-29T00:29:30;102039.32;;;17.96;52.90
55044;BME280;54902;50.420;18.854;2022-07-29T00:29:46;102020.77;;;17.96;52.81
55044;BME280;54902;50.420;18.854;2022-07-29T00:29:52;102032.74;;;17.97;52.86
55044;BME280;54902;50.420;18.854;2022-07-29T00:30:03;102027.19;;;17.97;52.94
55044;BME280;54902;50.420;18.854;2022-07-29T00:30:20;102032.74;;;17.97;53.10
55044;BME280;54902;50.420;18.854;2022-07-29T00:30:36;102021.64;;;17.97;52.88
55044;BME280;54902;50.420;18.854;2022-07-29T00:30:52;102028.95;;;17.98;53.01
55044;BME280;54902;50.420;18.854;2022-07-29T00:31:08;102034.50;;;17.98;52.93
55044;BME280;54902;50.420;18.854;2022-07-29T00:31:24;102033.63;;;17.97;53.03
55044;BME280;54902;50.420;18.854;2022-07-29T00:31:40;102028.95;;;17.98;53.01
55044;BME280;54902;50.420;18.854;2022-07-29T00:31:56;102029.97;;;17.97;52.91
55044;BME280;54902;50.420;18.854;2022-07-29T00:32:13;102016.73;;;17.91;52.91
55044;BME280;54902;50.420;18.854;2022-07-29T00:32:29;102032.42;;;18.00;52.87
55044;BME280;54902;50.420;18.854;2022-07-29T00:32:45;102037.98;;;18.00;53.03
55044;BME280;54902;50.420;18.854;2022-07-29T00:33:01;102034.18;;;18.01;52.87
55044;BME280;54902;50.420;18.854;2022-07-29T00:33:17;102027.19;;;17.97;53.03
55044;BME280;54902;50.420;18.854;2022-07-29T00:33:33;102024.09;;;18.00;52.88
55044;BME280;54902;50.420;18.854;2022-07-29T00:33:49;102026.17;;;17.98;52.88
55044;BME280;54902;50.420;18.854;2022-07-29T00:34:05;102028.78;;;17.99;52.84
55044;BME280;54902;50.420;18.854;2022-07-29T00:34:32;102027.02;;;17.98;53.16
55044;BME280;54902;50.420;18.854;2022-07-29T00:35:00;102024.41;;;17.97;53.22
55044;BME280;54902;50.420;18.854;2022-07-29T00:35:28;102027.02;;;17.98;53.27
55044;BME280;54902;50.420;18.854;2022-07-29T00:35:56;102026.01;;;17.99;53.07
55044;BME280;54902;50.420;18.854;2022-07-29T00:36:13;102029.65;;;18.00;53.05
55044;BME280;54902;50.420;18.854;2022-07-29T00:36:29;102024.26;;;17.98;53.16
55044;BME280;54902;50.420;18.854;2022-07-29T00:36:45;102030.70;;;17.99;52.99
55044;BME280;54902;50.420;18.854;2022-07-29T00:37:01;102026.01;;;17.99;53.12
55044;BME280;54902;50.420;18.854;2022-07-29T00:37:17;102025.16;;;17.99;53.07
55044;BME280;54902;50.420;18.854;2022-07-29T00:37:33;102021.32;;;18.00;53.03
55044;BME280;54902;50.420;18.854;2022-07-29T00:37:49;102022.38;;;17.99;52.86
55044;BME280;54902;50.420;18.854;2022-07-29T00:38:05;102017.68;;;17.99;53.10
55044;BME280;54902;50.420;18.854;2022-07-29T00:38:21;102023.08;;;18.01;53.30
55044;BME280;54902;50.420;18.854;2022-07-29T00:38:37;102025.16;;;17.99;53.18
55044;BME280;54902;50.420;18.854;2022-07-29T00:38:53;102021.32;;;18.00;53.14
55044;BME280;54902;50.420;18.854;2022-07-29T00:39:09;102023.08;;;18.01;53.05
55044;BME280;54902;50.420;18.854;2022-07-29T00:39:25;102026.01;;;17.99;53.15
55044;BME280;54902;50.420;18.854;2022-07-29T00:39:42;102015.77;;;18.00;52.97
55044;BME280;54902;50.420;18.854;2022-07-29T00:39:58;102015.77;;;18.00;52.99
55044;BME280;54902;50.420;18.854;2022-07-29T00:40:14;102025.16;;;17.99;53.00
55044;BME280;54902;50.420;18.854;2022-07-29T00:40:30;102014.04;;;17.99;52.91
55044;BME280;54902;50.420;18.854;2022-07-29T00:40:47;102019.60;;;17.99;52.86
55044;BME280;54902;50.420;18.854;2022-07-29T00:41:03;102028.63;;;18.01;52.87
55044;BME280;54902;50.420;18.854;2022-07-29T00:41:19;102019.60;;;17.99;53.11
55044;BME280;54902;50.420;18.854;2022-07-29T00:41:36;102023.08;;;18.01;53.02
55044;BME280;54902;50.420;18.854;2022-07-29T00:41:52;102024.09;;;18.00;52.98
55044;BME280;54902;50.420;18.854;2022-07-29T00:42:08;102030.38;;;18.02;53.14
55044;BME280;54902;50.420;18.854;2022-07-29T00:42:25;102023.08;;;18.01;53.13
55044;BME280;54902;50.420;18.854;2022-07-29T00:42:48;102015.77;;;18.00;53.07
55044;BME280;54902;50.420;18.854;2022-07-29T00:43:04;102017.52;;;18.01;53.07
55044;BME280;54902;50.420;18.854;2022-07-29T00:43:20;102015.77;;;18.00;52.87
55044;BME280;54902;50.420;18.854;2022-07-29T00:43:37;102022.05;;;18.02;53.08
55044;BME280;54902;50.420;18.854;2022-07-29T00:43:53;102021.32;;;18.00;53.11
55044;BME280;54902;50.420;18.854;2022-07-29T00:44:09;102021.20;;;18.01;53.08
55044;BME280;54902;50.420;18.854;2022-07-29T00:44:25;102017.52;;;18.01;53.06
55044;BME280;54902;50.420;18.854;2022-07-29T00:44:42;102026.87;;;18.00;53.20
55044;BME280;54902;50.420;18.854;2022-07-29T00:44:53;102020.45;;;17.99;53.19
55044;BME280;54902;50.420;18.854;2022-07-29T00:44:59;102020.45;;;17.99;53.05
55044;BME280;54902;50.420;18.854;2022-07-29T00:45:15;102027.77;;;18.00;53.03
55044;BME280;54902;50.420;18.854;2022-07-29T00:45:31;102018.41;;;18.01;53.27
55044;BME280;54902;50.420;18.854;2022-07-29T00:45:48;102010.95;;;18.02;53.18
55044;BME280;54902;50.420;18.854;2022-07-29T00:46:04;102025.85;;;18.01;52.99
55044;BME280;54902;50.420;18.854;2022-07-29T00:46:20;102015.48;;;18.03;53.01
55044;BME280;54902;50.420;18.854;2022-07-29T00:46:36;102019.27;;;18.02;53.13
55044;BME280;54902;50.420;18.854;2022-07-29T00:46:52;102011.80;;;18.02;53.18
55044;BME280;54902;50.420;18.854;2022-07-29T00:47:10;102018.41;;;18.01;53.18
55044;BME280;54902;50.420;18.854;2022-07-29T00:47:26;102018.41;;;18.01;53.19
55044;BME280;54902;50.420;18.854;2022-07-29T00:47:42;102017.52;;;18.01;53.05
55044;BME280;54902;50.420;18.854;2022-07-29T00:47:58;102023.80;;;18.03;53.06
55044;BME280;54902;50.420;18.854;2022-07-29T00:48:14;102011.97;;;18.01;53.04
55044;BME280;54902;50.420;18.854;2022-07-29T00:48:31;102021.89;;;18.03;53.07
55044;BME280;54902;50.420;18.854;2022-07-29T00:48:47;102014.58;;;18.02;53.15
55044;BME280;54902;50.420;18.854;2022-07-29T00:49:03;102015.48;;;18.03;53.17
55044;BME280;54902;50.420;18.854;2022-07-29T00:49:19;102007.16;;;18.03;53.21
55044;BME280;54902;50.420;18.854;2022-07-29T00:49:36;102016.34;;;18.03;53.04
55044;BME280;54902;50.420;18.854;2022-07-29T00:49:54;102021.89;;;18.03;53.27
55044;BME280;54902;50.420;18.854;2022-07-29T00:50:12;102015.48;;;18.03;53.15
55044;BME280;54902;50.420;18.854;2022-07-29T00:50:28;102015.48;;;18.03;53.09
55044;BME280;54902;50.420;18.854;2022-07-29T00:50:44;102011.68;;;18.04;53.16
55044;BME280;54902;50.420;18.854;2022-07-29T00:51:03;102019.27;;;18.02;53.16
55044;BME280;54902;50.420;18.854;2022-07-29T00:51:19;102024.52;;;18.05;53.14
55044;BME280;54902;50.420;18.854;2022-07-29T00:51:36;102019.85;;;18.05;53.19
55044;BME280;54902;50.420;18.854;2022-07-29T00:51:53;102018.96;;;18.05;53.34
55044;BME280;54902;50.420;18.854;2022-07-29T00:52:10;102018.96;;;18.05;53.36
55044;BME280;54902;50.420;18.854;2022-07-29T00:52:26;102013.56;;;18.03;53.29
55044;BME280;54902;50.420;18.854;2022-07-29T00:52:43;102013.41;;;18.05;53.12
55044;BME280;54902;50.420;18.854;2022-07-29T00:53:00;102003.35;;;18.04;53.29
55044;BME280;54902;50.420;18.854;2022-07-29T00:53:16;102009.93;;;18.03;53.24
55044;BME280;54902;50.420;18.854;2022-07-29T00:53:34;102008.91;;;18.04;53.23
55044;BME280;54902;50.420;18.854;2022-07-29T00:53:51;102007.85;;;18.05;53.33
55044;BME280;54902;50.420;18.854;2022-07-29T00:54:08;102009.60;;;18.06;53.30
55044;BME280;54902;50.420;18.854;2022-07-29T00:54:24;102007.85;;;18.05;53.23
55044;BME280;54902;50.420;18.854;2022-07-29T00:54:42;102012.38;;;18.06;53.34
55044;BME280;54902;50.420;18.854;2022-07-29T00:54:58;102017.94;;;18.06;53.22
55044;BME280;54902;50.420;18.854;2022-07-29T00:55:15;102009.45;;;18.07;53.23
55044;BME280;54902;50.420;18.854;2022-07-29T00:55:31;102009.60;;;18.06;53.19
55044;BME280;54902;50.420;18.854;2022-07-29T00:55:48;102012.38;;;18.06;53.34
55044;BME280;54902;50.420;18.854;2022-07-29T00:56:05;102018.96;;;18.05;53.33
55044;BME280;54902;50.420;18.854;2022-07-29T00:56:21;102007.85;;;18.05;53.27
55044;BME280;54902;50.420;18.854;2022-07-29T00:56:37;102001.44;;;18.04;53.40
55044;BME280;54902;50.420;18.854;2022-07-29T00:56:53;102010.46;;;18.06;53.40
55044;BME280;54902;50.420;18.854;2022-07-29T00:57:09;101997.80;;;18.04;53.37
55044;BME280;54902;50.420;18.854;2022-07-29T00:57:25;102007.69;;;18.06;53.36
55044;BME280;54902;50.420;18.854;2022-07-29T00:57:42;102007.85;;;18.05;53.25
55044;BME280;54902;50.420;18.854;2022-07-29T00:57:59;102005.82;;;18.07;53.44
55044;BME280;54902;50.420;18.854;2022-07-29T00:58:16;102007.56;;;18.08;53.32
55044;BME280;54902;50.420;18.854;2022-07-29T00:58:32;102001.28;;;18.06;53.27
55044;BME280;54902;50.420;18.854;2022-07-29T00:58:50;102006.82;;;18.06;53.33
55044;BME280;54902;50.420;18.854;2022-07-29T00:59:07;102013.12;;;18.08;53.31
55044;BME280;54902;50.420;18.854;2022-07-29T00:59:23;102005.82;;;18.07;53.27
55044;BME280;54902;50.420;18.854;2022-07-29T00:59:39;101999.52;;;18.05;53.36
55044;BME280;54902;50.420;18.854;2022-07-29T00:59:54;102016.02;;;18.06;53.33
55044;BME280;54902;50.420;18.854;2022-07-29T00:59:56;102025.95;;;18.08;53.31
55044;BME280;54902;50.420;18.854;2022-07-29T01:00:21;102008.58;;;18.07;53.28
55044;BME280;54902;50.420;18.854;2022-07-29T01:00:37;102011.36;;;18.07;53.30
55044;BME280;54902;50.420;18.854;2022-07-29T01:00:57;102002.30;;;18.05;53.47
55044;BME280;54902;50.420;18.854;2022-07-29T01:01:13;101998.49;;;18.06;53.43
55044;BME280;54902;50.420;18.854;2022-07-29T01:01:29;102010.34;;;18.08;53.48
55044;BME280;54902;50.420;18.854;2022-07-29T01:01:45;102005.82;;;18.07;53.49
55044;BME280;54902;50.420;18.854;2022-07-29T01:02:05;102006.67;;;18.07;53.59
55044;BME280;54902;50.420;18.854;2022-07-29T01:02:21;102007.69;;;18.06;53.65
55044;BME280;54902;50.420;18.854;2022-07-29T01:02:37;102015.89;;;18.08;53.44
55044;BME280;54902;50.420;18.854;2022-07-29T01:02:53;102009.28;;;18.08;53.43
55044;BME280;54902;50.420;18.854;2022-07-29T01:03:09;101999.36;;;18.06;53.39
55044;BME280;54902;50.420;18.854;2022-07-29T01:03:25;102004.91;;;18.06;53.47
55044;BME280;54902;50.420;18.854;2022-07-29T01:03:41;102003.89;;;18.07;53.39
55044;BME280;54902;50.420;18.854;2022-07-29T01:03:58;102011.36;;;18.07;53.50
55044;BME280;54902;50.420;18.854;2022-07-29T01:04:14;102012.38;;;18.06;53.53
55044;BME280;54902;50.420;18.854;2022-07-29T01:04:31;102004.78;;;18.08;53.42
55044;BME280;54902;50.420;18.854;2022-07-29T01:04:49;102006.67;;;18.07;53.47
55044;BME280;54902;50.420;18.854;2022-07-29T01:05:06;102000.27;;;18.07;53.47
55044;BME280;54902;50.420;18.854;2022-07-29T01:05:24;102004.05;;;18.06;53.51
55044;BME280;54902;50.420;18.854;2022-07-29T01:05:43;102020.72;;;18.06;53.53
55044;BME280;54902;50.420;18.854;2022-07-29T01:06:00;101996.75;;;18.05;53.42
55044;BME280;54902;50.420;18.854;2022-07-29T01:06:17;102007.69;;;18.06;53.37
55044;BME280;54902;50.420;18.854;2022-07-29T01:06:34;101991.92;;;18.07;53.45
55044;BME280;54902;50.420;18.854;2022-07-29T01:06:51;102001.12;;;18.07;53.37
55044;BME280;54902;50.420;18.854;2022-07-29T01:07:07;101996.45;;;18.08;53.38
55044;BME280;54902;50.420;18.854;2022-07-29T01:07:25;101997.48;;;18.07;53.47
55044;BME280;54902;50.420;18.854;2022-07-29T01:07:42;102000.27;;;18.07;53.42
55044;BME280;54902;50.420;18.854;2022-07-29T01:07:59;102005.65;;;18.08;53.33
55044;BME280;54902;50.420;18.854;2022-07-29T01:08:15;102005.82;;;18.07;53.49
55044;BME280;54902;50.420;18.854;2022-07-29T01:08:32;102006.52;;;18.08;53.39
55044;BME280;54902;50.420;18.854;2022-07-29T01:08:49;102002.01;;;18.08;53.47
55044;BME280;54902;50.420;18.854;2022-07-29T01:09:06;102007.56;;;18.08;53.48
55044;BME280;54902;50.420;18.854;2022-07-29T01:09:23;102000.09;;;18.08;53.41
55044;BME280;54902;50.420;18.854;2022-07-29T01:09:40;102009.28;;;18.08;53.57
55044;BME280;54902;50.420;18.854;2022-07-29T01:09:58;101996.45;;;18.08;53.63
55044;BME280;54902;50.420;18.854;2022-07-29T01:10:15;102003.73;;;18.08;53.43
55044;BME280;54902;50.420;18.854;2022-07-29T01:10:33;102000.96;;;18.08;53.54
55044;BME280;54902;50.420;18.854;2022-07-29T01:10:50;101995.56;;;18.07;53.54
55044;BME280;54902;50.420;18.854;2022-07-29T01:11:07;102002.01;;;18.08;53.42
55044;BME280;54902;50.420;18.854;2022-07-29T01:11:24;101995.56;;;18.07;53.58
55044;BME280;54902;50.420;18.854;2022-07-29T01:11:42;102004.78;;;18.08;53.60
55044;BME280;54902;50.420;18.854;2022-07-29T01:11:59;101991.20;;;18.05;53.50
55044;BME280;54902;50.420;18.854;2022-07-29T01:12:23;101999.93;;;18.09;53.34
55044;BME280;54902;50.420;18.854;2022-07-29T01:12:41;101991.92;;;18.07;53.55
55044;BME280;54902;50.420;18.854;2022-07-29T01:12:59;101992.62;;;18.08;53.53
55044;BME280;54902;50.420;18.854;2022-07-29T01:13:18;102001.12;;;18.07;53.62
55044;BME280;54902;50.420;18.854;2022-07-29T01:13:34;101990.90;;;18.08;53.43
55044;BME280;54902;50.420;18.854;2022-07-29T01:13:52;102000.96;;;18.08;53.56
55044;BME280;54902;50.420;18.854;2022-07-29T01:14:09;101996.29;;;18.09;53.52
55044;BME280;54902;50.420;18.854;2022-07-29T01:14:26;101997.31;;;18.08;53.37
55044;BME280;54902;50.420;18.854;2022-07-29T01:14:44;102000.09;;;18.08;53.57
55044;BME280;54902;50.420;18.854;2022-07-29T01:14:56;101999.23;;;18.08;53.52
55044;BME280;54902;50.420;18.854;2022-07-29T01:15:03;101987.23;;;18.07;53.56
55044;BME280;54902;50.420;18.854;2022-07-29T01:15:20;101993.68;;;18.08;53.57
55044;BME280;54902;50.420;18.854;2022-07-29T01:15:46;102000.80;;;18.10;53.55
55044;BME280;54902;50.420;18.854;2022-07-29T01:16:08;101990.01;;;18.07;53.57
55044;BME280;54902;50.420;18.854;2022-07-29T01:16:31;101998.18;;;18.08;53.62
55044;BME280;54902;50.420;18.854;2022-07-29T01:17:25;101988.99;;;18.08;53.54
55044;BME280;54902;50.420;18.854;2022-07-29T01:17:50;101992.62;;;18.08;53.48
55044;BME280;54902;50.420;18.854;2022-07-29T01:18:16;101990.17;;;18.06;53.44
55044;BME280;54902;50.420;18.854;2022-07-29T01:18:40;101996.45;;;18.08;53.59
55044;BME280;54902;50.420;18.854;2022-07-29T01:19:13;101988.13;;;18.08;53.37
55044;BME280;54902;50.420;18.854;2022-07-29T01:21:19;101992.62;;;18.08;53.60
55044;BME280;54902;50.420;18.854;2022-07-29T01:21:55;102000.96;;;18.08;53.67
55044;BME280;54902;50.420;18.854;2022-07-29T01:29:01;101999.36;;;18.06;53.68
55044;BME280;54902;50.420;18.854;2022-07-29T01:29:44;101994.70;;;18.07;53.68
55044;BME280;54902;50.420;18.854;2022-07-29T01:29:58;101998.49;;;18.06;53.81
55044;BME280;54902;50.420;18.854;2022-07-29T01:30:02;102005.82;;;18.07;53.72
55044;BME280;54902;50.420;18.854;2022-07-29T01:30:18;101993.80;;;18.06;53.73
55044;BME280;54902;50.420;18.854;2022-07-29T01:30:38;101997.48;;;18.07;53.61
55044;BME280;54902;50.420;18.854;2022-07-29T01:30:56;102000.27;;;18.07;53.54
55044;BME280;54902;50.420;18.854;2022-07-29T01:31:16;101991.92;;;18.07;53.69
55044;BME280;54902;50.420;18.854;2022-07-29T01:32:10;101993.80;;;18.06;53.68
55044;BME280;54902;50.420;18.854;2022-07-29T01:32:33;102000.27;;;18.07;53.63
55044;BME280;54902;50.420;18.854;2022-07-29T01:32:56;101994.70;;;18.07;53.57
55044;BME280;54902;50.420;18.854;2022-07-29T01:33:17;101982.70;;;18.06;53.62
55044;BME280;54902;50.420;18.854;2022-07-29T01:33:52;101992.95;;;18.06;53.55
55044;BME280;54902;50.420;18.854;2022-07-29T01:34:39;101991.20;;;18.05;53.63
55044;BME280;54902;50.420;18.854;2022-07-29T01:35:17;101990.33;;;18.04;53.63
55044;BME280;54902;50.420;18.854;2022-07-29T01:35:40;101982.86;;;18.05;53.70
55044;BME280;54902;50.420;18.854;2022-07-29T01:35:59;101995.03;;;18.04;53.76
55044;BME280;54902;50.420;18.854;2022-07-29T01:36:55;101988.58;;;18.03;53.69
55044;BME280;54902;50.420;18.854;2022-07-29T01:37:48;101997.07;;;18.02;53.68
55044;BME280;54902;50.420;18.854;2022-07-29T01:38:18;101986.12;;;18.00;53.69
55044;BME280;54902;50.420;18.854;2022-07-29T01:38:35;101995.15;;;18.02;53.55
55044;BME280;54902;50.420;18.854;2022-07-29T01:39:02;102000.00;;;18.00;53.67
55044;BME280;54902;50.420;18.854;2022-07-29T01:39:31;101993.55;;;18.00;53.69
55044;BME280;54902;50.420;18.854;2022-07-29T01:39:52;101992.54;;;18.01;53.77
55044;BME280;54902;50.420;18.854;2022-07-29T01:40:36;101999.11;;;18.00;53.68
55044;BME280;54902;50.420;18.854;2022-07-29T01:40:46;101981.75;;;17.98;53.61